sensor_id;sensor_type;location;lat;lon;timestamp;temperature;humidity
22781;DHT22;11557;50.884;4.322;2023-05-07T00:01:12;18.90;99.90
22781;DHT22;11557;50.884;4.322;2023-05-07T00:03:38;18.80;99.90
22781;DHT22;11557;50.884;4.322;2023-05-07T00:06:04;18.80;99.90
22781;DHT22;11557;50.884;4.322;2023-05-07T00:08:30;18.90;99.90
22781;DHT22;11557;50.884;4.322;2023-05-07T00:10:56;18.90;99.90
22781;DHT22;11557;50.884;4.322;2023-05-07T00:13:21;18.90;99.90
22781;DHT22;11557;50.884;4.322;2023-05-07T00:15:47;19.00;99.90
22781;DHT22;11557;50.884;4.322;2023-05-07T00:18:13;19.00;99.90
22781;DHT22;11557;50.884;4.322;2023-05-07T00:20:38;19.00;99.90
22781;DHT22;11557;50.884;4.322;2023-05-07T00:23:04;19.00;99.90
22781;DHT22;11557;50.884;4.322;2023-05-07T00:25:29;19.00;99.90
22781;DHT22;11557;50.884;4.322;2023-05-07T00:27:55;19.00;99.90
22781;DHT22;11557;50.884;4.322;2023-05-07T00:30:21;19.00;99.90
22781;DHT22;11557;50.884;4.322;2023-05-07T00:32:46;19.00;99.90
22781;DHT22;11557;50.884;4.322;2023-05-07T00:35:14;18.90;99.90
22781;DHT22;11557;50.884;4.322;2023-05-07T00:37:39;18.90;99.90
22781;DHT22;11557;50.884;4.322;2023-05-07T00:40:06;18.90;99.90
22781;DHT22;11557;50.884;4.322;2023-05-07T00:42:33;18.90;99.90
22781;DHT22;11557;50.884;4.322;2023-05-07T00:44:58;18.90;99.90
22781;DHT22;11557;50.884;4.322;2023-05-07T00:47:25;18.90;99.90
22781;DHT22;11557;50.884;4.322;2023-05-07T00:49:51;18.90;99.90
22781;DHT22;11557;50.884;4.322;2023-05-07T00:52:19;18.90;99.90
22781;DHT22;11557;50.884;4.322;2023-05-07T00:54:46;18.90;99.90
22781;DHT22;11557;50.884;4.322;2023-05-07T00:57:11;19.00;99.90
22781;DHT22;11557;50.884;4.322;2023-05-07T00:59:37;18.90;99.90
22781;DHT22;11557;50.884;4.322;2023-05-07T01:02:04;18.80;99.90
22781;DHT22;11557;50.884;4.322;2023-05-07T01:04:29;18.80;99.90
22781;DHT22;11557;50.884;4.322;2023-05-07T01:06:56;18.80;99.90
22781;DHT22;11557;50.884;4.322;2023-05-07T01:09:24;18.80;99.90
22781;DHT22;11557;50.884;4.322;2023-05-07T01:11:50;18.70;99.90
22781;DHT22;11557;50.884;4.322;2023-05-07T01:14:17;18.70;99.90
22781;DHT22;11557;50.884;4.322;2023-05-07T01:16:43;18.70;99.90
22781;DHT22;11557;50.884;4.322;2023-05-07T01:19:11;18.70;99.90
22781;DHT22;11557;50.884;4.322;2023-05-07T01:21:38;18.70;99.90
22781;DHT22;11557;50.884;4.322;2023-05-07T01:24:04;18.60;99.90
22781;DHT22;11557;50.884;4.322;2023-05-07T01:26:31;18.60;99.90
22781;DHT22;11557;50.884;4.322;2023-05-07T01:28:56;18.60;99.90
22781;DHT22;11557;50.884;4.322;2023-05-07T01:31:23;18.60;99.90
22781;DHT22;11557;50.884;4.322;2023-05-07T01:33:50;18.60;99.90
22781;DHT22;11557;50.884;4.322;2023-05-07T01:36:18;18.60;99.90
22781;DHT22;11557;50.884;4.322;2023-05-07T01:38:45;18.60;99.90
22781;DHT22;11557;50.884;4.322;2023-05-07T01:41:12;18.50;99.90
22781;DHT22;11557;50.884;4.322;2023-05-07T01:43:40;18.40;99.90
22781;DHT22;11557;50.884;4.322;2023-05-07T01:46:07;18.40;99.90
22781;DHT22;11557;50.884;4.322;2023-05-07T01:48:35;18.30;99.90
22781;DHT22;11557;50.884;4.322;2023-05-07T01:51:01;18.30;99.90
22781;DHT22;11557;50.884;4.322;2023-05-07T01:53:28;18.30;99.90
22781;DHT22;11557;50.884;4.322;2023-05-07T01:55:53;18.20;99.90
22781;DHT22;11557;50.884;4.322;2023-05-07T01:58:19;18.20;99.90
22781;DHT22;11557;50.884;4.322;2023-05-07T02:00:45;18.20;99.90
22781;DHT22;11557;50.884;4.322;2023-05-07T02:03:11;18.10;99.90
22781;DHT22;11557;50.884;4.322;2023-05-07T02:05:37;18.10;99.90
22781;DHT22;11557;50.884;4.322;2023-05-07T02:08:02;18.00;99.90
22781;DHT22;11557;50.884;4.322;2023-05-07T02:10:28;18.00;99.90
22781;DHT22;11557;50.884;4.322;2023-05-07T02:12:54;18.10;99.90
22781;DHT22;11557;50.884;4.322;2023-05-07T02:15:20;18.10;99.90
22781;DHT22;11557;50.884;4.322;2023-05-07T02:17:59;18.10;99.90
22781;DHT22;11557;50.884;4.322;2023-05-07T02:20:26;18.00;99.90
22781;DHT22;11557;50.884;4.322;2023-05-07T02:22:51;18.00;99.90
22781;DHT22;11557;50.884;4.322;2023-05-07T02:25:17;17.90;99.90
22781;DHT22;11557;50.884;4.322;2023-05-07T02:27:43;17.80;99.90
22781;DHT22;11557;50.884;4.322;2023-05-07T02:30:08;17.80;99.90
22781;DHT22;11557;50.884;4.322;2023-05-07T02:32:34;17.90;99.90
22781;DHT22;11557;50.884;4.322;2023-05-07T02:35:00;18.00;99.90
22781;DHT22;11557;50.884;4.322;2023-05-07T02:37:26;17.90;99.90
22781;DHT22;11557;50.884;4.322;2023-05-07T02:39:51;17.90;99.90
22781;DHT22;11557;50.884;4.322;2023-05-07T02:42:17;18.00;99.90
22781;DHT22;11557;50.884;4.322;2023-05-07T02:44:43;17.90;99.90
22781;DHT22;11557;50.884;4.322;2023-05-07T02:47:08;17.80;99.90
22781;DHT22;11557;50.884;4.322;2023-05-07T02:49:35;17.70;99.90
22781;DHT22;11557;50.884;4.322;2023-05-07T02:52:00;17.50;99.90
22781;DHT22;11557;50.884;4.322;2023-05-07T02:54:26;17.60;99.90
22781;DHT22;11557;50.884;4.322;2023-05-07T02:56:51;17.60;99.90
22781;DHT22;11557;50.884;4.322;2023-05-07T02:59:17;17.70;99.90
22781;DHT22;11557;50.884;4.322;2023-05-07T03:01:43;17.60;99.90
22781;DHT22;11557;50.884;4.322;2023-05-07T03:04:10;17.70;99.90
22781;DHT22;11557;50.884;4.322;2023-05-07T03:06:36;17.80;99.90
22781;DHT22;11557;50.884;4.322;2023-05-07T03:09:02;17.80;99.90
22781;DHT22;11557;50.884;4.322;2023-05-07T03:11:28;17.80;99.90
22781;DHT22;11557;50.884;4.322;2023-05-07T03:13:53;17.80;99.90
22781;DHT22;11557;50.884;4.322;2023-05-07T03:16:19;17.90;99.90
22781;DHT22;11557;50.884;4.322;2023-05-07T03:18:45;18.00;99.90
22781;DHT22;11557;50.884;4.322;2023-05-07T03:21:10;18.00;99.90
22781;DHT22;11557;50.884;4.322;2023-05-07T03:23:36;18.00;99.90
22781;DHT22;11557;50.884;4.322;2023-05-07T03:26:02;18.00;99.90
22781;DHT22;11557;50.884;4.322;2023-05-07T03:28:27;18.00;99.90
22781;DHT22;11557;50.884;4.322;2023-05-07T03:30:53;18.10;99.90
22781;DHT22;11557;50.884;4.322;2023-05-07T03:33:19;18.10;99.90
22781;DHT22;11557;50.884;4.322;2023-05-07T03:35:44;18.10;99.90
22781;DHT22;11557;50.884;4.322;2023-05-07T03:38:10;18.10;99.90
22781;DHT22;11557;50.884;4.322;2023-05-07T03:40:36;18.10;99.90
22781;DHT22;11557;50.884;4.322;2023-05-07T03:43:02;18.10;99.90
22781;DHT22;11557;50.884;4.322;2023-05-07T03:45:27;18.20;99.90
22781;DHT22;11557;50.884;4.322;2023-05-07T03:47:53;18.20;99.90
22781;DHT22;11557;50.884;4.322;2023-05-07T03:50:19;18.20;99.90
22781;DHT22;11557;50.884;4.322;2023-05-07T03:52:45;18.10;99.90
22781;DHT22;11557;50.884;4.322;2023-05-07T03:55:11;18.20;99.90
22781;DHT22;11557;50.884;4.322;2023-05-07T03:57:36;18.10;99.90
22781;DHT22;11557;50.884;4.322;2023-05-07T04:00:02;18.00;99.90
22781;DHT22;11557;50.884;4.322;2023-05-07T04:02:29;18.00;99.90
22781;DHT22;11557;50.884;4.322;2023-05-07T04:04:55;18.00;99.90
22781;DHT22;11557;50.884;4.322;2023-05-07T04:07:21;18.10;99.90
22781;DHT22;11557;50.884;4.322;2023-05-07T04:09:47;18.00;99.90
22781;DHT22;11557;50.884;4.322;2023-05-07T04:12:13;18.00;99.90
22781;DHT22;11557;50.884;4.322;2023-05-07T04:14:38;18.00;99.90
22781;DHT22;11557;50.884;4.322;2023-05-07T04:17:04;18.10;99.90
22781;DHT22;11557;50.884;4.322;2023-05-07T04:19:33;18.20;99.90
22781;DHT22;11557;50.884;4.322;2023-05-07T04:21:59;18.20;99.90
22781;DHT22;11557;50.884;4.322;2023-05-07T04:24:24;18.20;99.90
22781;DHT22;11557;50.884;4.322;2023-05-07T04:26:50;18.30;99.90
22781;DHT22;11557;50.884;4.322;2023-05-07T04:29:16;18.30;99.90
22781;DHT22;11557;50.884;4.322;2023-05-07T04:31:42;18.30;99.90
22781;DHT22;11557;50.884;4.322;2023-05-07T04:34:10;18.30;99.90
22781;DHT22;11557;50.884;4.322;2023-05-07T04:36:37;18.40;99.90
22781;DHT22;11557;50.884;4.322;2023-05-07T04:39:03;18.30;99.90
22781;DHT22;11557;50.884;4.322;2023-05-07T04:41:29;18.20;99.90
22781;DHT22;11557;50.884;4.322;2023-05-07T04:43:55;18.10;99.90
22781;DHT22;11557;50.884;4.322;2023-05-07T04:46:22;18.20;99.90
22781;DHT22;11557;50.884;4.322;2023-05-07T04:48:49;18.30;99.90
22781;DHT22;11557;50.884;4.322;2023-05-07T04:51:15;18.30;99.90
22781;DHT22;11557;50.884;4.322;2023-05-07T04:53:40;18.30;99.90
22781;DHT22;11557;50.884;4.322;2023-05-07T04:56:06;18.30;99.90
22781;DHT22;11557;50.884;4.322;2023-05-07T04:58:32;18.30;99.90
22781;DHT22;11557;50.884;4.322;2023-05-07T05:00:59;18.40;99.90
22781;DHT22;11557;50.884;4.322;2023-05-07T05:03:25;18.40;99.90
22781;DHT22;11557;50.884;4.322;2023-05-07T05:05:51;18.40;99.90
22781;DHT22;11557;50.884;4.322;2023-05-07T05:08:18;18.40;99.90
22781;DHT22;11557;50.884;4.322;2023-05-07T05:10:43;18.50;99.90
22781;DHT22;11557;50.884;4.322;2023-05-07T05:13:09;18.50;99.90
22781;DHT22;11557;50.884;4.322;2023-05-07T05:15:38;18.60;99.90
22781;DHT22;11557;50.884;4.322;2023-05-07T05:18:03;18.60;99.90
22781;DHT22;11557;50.884;4.322;2023-05-07T05:20:29;18.70;99.90
22781;DHT22;11557;50.884;4.322;2023-05-07T05:22:55;18.80;99.90
22781;DHT22;11557;50.884;4.322;2023-05-07T05:25:21;18.80;99.90
22781;DHT22;11557;50.884;4.322;2023-05-07T05:27:46;18.80;99.90
22781;DHT22;11557;50.884;4.322;2023-05-07T05:30:12;18.80;99.90
22781;DHT22;11557;50.884;4.322;2023-05-07T05:32:39;18.80;99.90
22781;DHT22;11557;50.884;4.322;2023-05-07T05:35:05;18.80;99.90
22781;DHT22;11557;50.884;4.322;2023-05-07T05:37:31;18.90;99.90
22781;DHT22;11557;50.884;4.322;2023-05-07T05:39:57;18.90;99.90
22781;DHT22;11557;50.884;4.322;2023-05-07T05:42:23;19.00;99.90
22781;DHT22;11557;50.884;4.322;2023-05-07T05:44:48;19.00;99.90
22781;DHT22;11557;50.884;4.322;2023-05-07T05:47:14;19.00;99.90
22781;DHT22;11557;50.884;4.322;2023-05-07T05:49:40;19.10;99.90
22781;DHT22;11557;50.884;4.322;2023-05-07T05:52:05;19.10;99.90
22781;DHT22;11557;50.884;4.322;2023-05-07T05:54:31;19.10;99.90
22781;DHT22;11557;50.884;4.322;2023-05-07T05:56:57;19.10;99.90
22781;DHT22;11557;50.884;4.322;2023-05-07T05:59:23;19.10;99.90
22781;DHT22;11557;50.884;4.322;2023-05-07T06:01:48;18.90;99.90
22781;DHT22;11557;50.884;4.322;2023-05-07T06:04:14;18.80;99.90
22781;DHT22;11557;50.884;4.322;2023-05-07T06:06:40;18.60;99.90
22781;DHT22;11557;50.884;4.322;2023-05-07T06:09:05;18.50;99.90
22781;DHT22;11557;50.884;4.322;2023-05-07T06:11:31;18.30;99.90
22781;DHT22;11557;50.884;4.322;2023-05-07T06:13:58;18.20;99.90
22781;DHT22;11557;50.884;4.322;2023-05-07T06:16:24;18.30;99.90
22781;DHT22;11557;50.884;4.322;2023-05-07T06:18:50;18.20;99.90
22781;DHT22;11557;50.884;4.322;2023-05-07T06:21:16;18.20;99.90
22781;DHT22;11557;50.884;4.322;2023-05-07T06:23:41;17.90;99.90
22781;DHT22;11557;50.884;4.322;2023-05-07T06:26:07;17.60;99.90
22781;DHT22;11557;50.884;4.322;2023-05-07T06:28:33;17.60;99.90
22781;DHT22;11557;50.884;4.322;2023-05-07T06:31:14;17.40;99.90
22781;DHT22;11557;50.884;4.322;2023-05-07T06:33:41;17.40;99.90
22781;DHT22;11557;50.884;4.322;2023-05-07T06:36:06;17.30;99.90
22781;DHT22;11557;50.884;4.322;2023-05-07T06:38:32;17.20;99.90
22781;DHT22;11557;50.884;4.322;2023-05-07T06:40:58;17.30;99.90
22781;DHT22;11557;50.884;4.322;2023-05-07T06:43:23;17.40;99.90
22781;DHT22;11557;50.884;4.322;2023-05-07T06:45:49;17.60;99.90
22781;DHT22;11557;50.884;4.322;2023-05-07T06:48:15;17.80;99.90
22781;DHT22;11557;50.884;4.322;2023-05-07T06:50:42;17.60;99.90
22781;DHT22;11557;50.884;4.322;2023-05-07T06:53:07;17.50;99.90
22781;DHT22;11557;50.884;4.322;2023-05-07T06:55:33;17.50;99.90
22781;DHT22;11557;50.884;4.322;2023-05-07T06:57:58;17.50;99.90
22781;DHT22;11557;50.884;4.322;2023-05-07T07:00:27;17.20;99.90
22781;DHT22;11557;50.884;4.322;2023-05-07T07:02:53;17.30;99.90
22781;DHT22;11557;50.884;4.322;2023-05-07T07:05:19;17.50;99.90
22781;DHT22;11557;50.884;4.322;2023-05-07T07:07:45;17.70;99.90
22781;DHT22;11557;50.884;4.322;2023-05-07T07:10:20;17.50;99.90
22781;DHT22;11557;50.884;4.322;2023-05-07T07:12:46;17.40;99.90
22781;DHT22;11557;50.884;4.322;2023-05-07T07:15:12;17.50;99.90
22781;DHT22;11557;50.884;4.322;2023-05-07T07:17:38;17.50;99.90
22781;DHT22;11557;50.884;4.322;2023-05-07T07:20:04;17.60;99.90
22781;DHT22;11557;50.884;4.322;2023-05-07T07:22:30;17.60;99.90
22781;DHT22;11557;50.884;4.322;2023-05-07T07:24:56;17.60;99.90
22781;DHT22;11557;50.884;4.322;2023-05-07T07:27:21;17.40;99.90
22781;DHT22;11557;50.884;4.322;2023-05-07T07:29:47;17.50;99.90
22781;DHT22;11557;50.884;4.322;2023-05-07T07:32:13;17.60;99.90
22781;DHT22;11557;50.884;4.322;2023-05-07T07:34:38;17.70;99.90
22781;DHT22;11557;50.884;4.322;2023-05-07T07:37:04;17.60;99.90
22781;DHT22;11557;50.884;4.322;2023-05-07T07:39:34;17.70;99.90
22781;DHT22;11557;50.884;4.322;2023-05-07T07:42:03;17.80;99.90
22781;DHT22;11557;50.884;4.322;2023-05-07T07:44:28;17.80;99.90
22781;DHT22;11557;50.884;4.322;2023-05-07T07:46:54;17.90;99.90
22781;DHT22;11557;50.884;4.322;2023-05-07T07:49:20;18.10;99.90
22781;DHT22;11557;50.884;4.322;2023-05-07T07:51:45;18.10;99.90
22781;DHT22;11557;50.884;4.322;2023-05-07T07:54:11;18.20;99.90
22781;DHT22;11557;50.884;4.322;2023-05-07T07:56:37;18.00;99.90
22781;DHT22;11557;50.884;4.322;2023-05-07T07:59:03;17.70;99.90
22781;DHT22;11557;50.884;4.322;2023-05-07T08:01:30;17.50;99.90
22781;DHT22;11557;50.884;4.322;2023-05-07T08:03:56;17.70;99.90
22781;DHT22;11557;50.884;4.322;2023-05-07T08:06:24;17.70;99.90
22781;DHT22;11557;50.884;4.322;2023-05-07T08:08:51;17.90;99.90
22781;DHT22;11557;50.884;4.322;2023-05-07T08:11:16;17.80;99.90
22781;DHT22;11557;50.884;4.322;2023-05-07T08:13:42;17.80;99.90
22781;DHT22;11557;50.884;4.322;2023-05-07T08:16:08;18.10;99.90
22781;DHT22;11557;50.884;4.322;2023-05-07T08:18:34;18.10;99.90
22781;DHT22;11557;50.884;4.322;2023-05-07T08:21:01;18.20;99.90
22781;DHT22;11557;50.884;4.322;2023-05-07T08:23:26;18.40;99.90
22781;DHT22;11557;50.884;4.322;2023-05-07T08:25:53;18.50;99.90
22781;DHT22;11557;50.884;4.322;2023-05-07T08:28:18;18.40;99.90
22781;DHT22;11557;50.884;4.322;2023-05-07T08:30:45;18.40;99.90
22781;DHT22;11557;50.884;4.322;2023-05-07T08:33:11;18.60;99.90
22781;DHT22;11557;50.884;4.322;2023-05-07T08:35:36;18.60;99.90
22781;DHT22;11557;50.884;4.322;2023-05-07T08:38:02;18.70;99.90
22781;DHT22;11557;50.884;4.322;2023-05-07T08:40:28;18.80;99.90
22781;DHT22;11557;50.884;4.322;2023-05-07T08:42:55;18.80;99.90
22781;DHT22;11557;50.884;4.322;2023-05-07T08:45:22;18.80;99.90
22781;DHT22;11557;50.884;4.322;2023-05-07T08:47:52;18.80;99.90
22781;DHT22;11557;50.884;4.322;2023-05-07T08:50:21;18.80;99.90
22781;DHT22;11557;50.884;4.322;2023-05-07T08:52:47;18.90;99.90
22781;DHT22;11557;50.884;4.322;2023-05-07T08:55:13;19.00;99.90
22781;DHT22;11557;50.884;4.322;2023-05-07T08:57:39;19.00;99.90
22781;DHT22;11557;50.884;4.322;2023-05-07T09:00:06;18.90;99.90
22781;DHT22;11557;50.884;4.322;2023-05-07T09:02:35;18.90;99.90
22781;DHT22;11557;50.884;4.322;2023-05-07T09:05:01;19.00;99.90
22781;DHT22;11557;50.884;4.322;2023-05-07T09:07:27;19.20;99.90
22781;DHT22;11557;50.884;4.322;2023-05-07T09:09:53;19.40;99.90
22781;DHT22;11557;50.884;4.322;2023-05-07T09:12:21;19.40;99.90
22781;DHT22;11557;50.884;4.322;2023-05-07T09:14:47;19.40;99.90
22781;DHT22;11557;50.884;4.322;2023-05-07T09:17:14;19.20;99.90
22781;DHT22;11557;50.884;4.322;2023-05-07T09:19:40;19.30;99.90
22781;DHT22;11557;50.884;4.322;2023-05-07T09:22:06;19.40;99.90
22781;DHT22;11557;50.884;4.322;2023-05-07T09:24:35;19.60;99.90
22781;DHT22;11557;50.884;4.322;2023-05-07T09:27:05;19.70;99.90
22781;DHT22;11557;50.884;4.322;2023-05-07T09:29:30;19.80;99.90
22781;DHT22;11557;50.884;4.322;2023-05-07T09:32:07;19.90;99.90
22781;DHT22;11557;50.884;4.322;2023-05-07T09:34:33;20.00;99.90
22781;DHT22;11557;50.884;4.322;2023-05-07T09:37:01;20.10;99.90
22781;DHT22;11557;50.884;4.322;2023-05-07T09:39:41;20.20;99.90
22781;DHT22;11557;50.884;4.322;2023-05-07T09:42:08;20.20;99.90
22781;DHT22;11557;50.884;4.322;2023-05-07T09:44:35;20.30;99.90
22781;DHT22;11557;50.884;4.322;2023-05-07T09:47:05;20.40;99.90
22781;DHT22;11557;50.884;4.322;2023-05-07T09:49:35;20.30;99.90
22781;DHT22;11557;50.884;4.322;2023-05-07T09:52:05;20.40;99.90
22781;DHT22;11557;50.884;4.322;2023-05-07T09:54:34;20.50;99.90
22781;DHT22;11557;50.884;4.322;2023-05-07T09:57:04;20.60;99.90
22781;DHT22;11557;50.884;4.322;2023-05-07T09:59:32;20.70;99.90
22781;DHT22;11557;50.884;4.322;2023-05-07T10:01:59;20.70;99.90
22781;DHT22;11557;50.884;4.322;2023-05-07T10:04:26;20.70;99.90
22781;DHT22;11557;50.884;4.322;2023-05-07T10:06:52;20.70;99.90
22781;DHT22;11557;50.884;4.322;2023-05-07T10:09:19;20.70;99.90
22781;DHT22;11557;50.884;4.322;2023-05-07T10:11:45;20.70;99.90
22781;DHT22;11557;50.884;4.322;2023-05-07T10:14:14;20.70;99.90
22781;DHT22;11557;50.884;4.322;2023-05-07T10:16:41;20.50;99.90
22781;DHT22;11557;50.884;4.322;2023-05-07T10:19:08;20.40;99.90
22781;DHT22;11557;50.884;4.322;2023-05-07T10:21:37;20.30;99.90
22781;DHT22;11557;50.884;4.322;2023-05-07T10:24:05;20.20;99.90
22781;DHT22;11557;50.884;4.322;2023-05-07T10:26:36;20.20;99.90
22781;DHT22;11557;50.884;4.322;2023-05-07T10:29:07;20.30;99.90
22781;DHT22;11557;50.884;4.322;2023-05-07T10:34:39;20.20;99.90
22781;DHT22;11557;50.884;4.322;2023-05-07T10:37:06;20.10;99.90
22781;DHT22;11557;50.884;4.322;2023-05-07T10:39:32;20.10;99.90
22781;DHT22;11557;50.884;4.322;2023-05-07T10:42:10;20.20;99.90
22781;DHT22;11557;50.884;4.322;2023-05-07T10:44:36;20.20;99.90
22781;DHT22;11557;50.884;4.322;2023-05-07T10:52:17;20.00;99.90
22781;DHT22;11557;50.884;4.322;2023-05-07T10:54:44;20.00;99.90
22781;DHT22;11557;50.884;4.322;2023-05-07T10:57:32;20.30;99.90
22781;DHT22;11557;50.884;4.322;2023-05-07T10:59:58;20.40;99.90
22781;DHT22;11557;50.884;4.322;2023-05-07T11:05:26;20.70;99.90
22781;DHT22;11557;50.884;4.322;2023-05-07T11:07:55;20.90;99.90
22781;DHT22;11557;50.884;4.322;2023-05-07T11:10:22;20.90;99.90
22781;DHT22;11557;50.884;4.322;2023-05-07T11:12:48;21.00;99.90
22781;DHT22;11557;50.884;4.322;2023-05-07T11:15:14;21.00;99.90
22781;DHT22;11557;50.884;4.322;2023-05-07T11:17:59;21.10;99.90
22781;DHT22;11557;50.884;4.322;2023-05-07T11:20:48;21.00;99.90
22781;DHT22;11557;50.884;4.322;2023-05-07T11:26:09;21.30;99.90
22781;DHT22;11557;50.884;4.322;2023-05-07T11:28:38;21.60;99.90
22781;DHT22;11557;50.884;4.322;2023-05-07T11:31:04;21.50;99.90
22781;DHT22;11557;50.884;4.322;2023-05-07T11:33:30;21.40;99.90
22781;DHT22;11557;50.884;4.322;2023-05-07T11:35:56;21.00;99.90
22781;DHT22;11557;50.884;4.322;2023-05-07T11:38:22;21.10;99.90
22781;DHT22;11557;50.884;4.322;2023-05-07T11:40:49;21.20;99.90
22781;DHT22;11557;50.884;4.322;2023-05-07T11:43:16;21.20;99.90
22781;DHT22;11557;50.884;4.322;2023-05-07T11:45:42;21.20;99.90
22781;DHT22;11557;50.884;4.322;2023-05-07T11:48:08;21.40;99.90
22781;DHT22;11557;50.884;4.322;2023-05-07T11:50:33;21.40;99.90
22781;DHT22;11557;50.884;4.322;2023-05-07T11:52:59;21.50;99.90
22781;DHT22;11557;50.884;4.322;2023-05-07T11:55:25;21.40;99.90
22781;DHT22;11557;50.884;4.322;2023-05-07T11:57:51;21.30;99.90
22781;DHT22;11557;50.884;4.322;2023-05-07T12:00:17;21.20;99.90
22781;DHT22;11557;50.884;4.322;2023-05-07T12:02:45;21.50;99.90
22781;DHT22;11557;50.884;4.322;2023-05-07T12:05:11;21.40;99.90
22781;DHT22;11557;50.884;4.322;2023-05-07T12:07:37;21.60;99.90
22781;DHT22;11557;50.884;4.322;2023-05-07T12:10:06;21.50;99.90
22781;DHT22;11557;50.884;4.322;2023-05-07T12:12:38;21.50;99.90
22781;DHT22;11557;50.884;4.322;2023-05-07T12:15:05;21.00;99.90
22781;DHT22;11557;50.884;4.322;2023-05-07T12:17:31;20.90;99.90
22781;DHT22;11557;50.884;4.322;2023-05-07T12:19:57;20.80;99.90
22781;DHT22;11557;50.884;4.322;2023-05-07T12:22:22;20.70;99.90
22781;DHT22;11557;50.884;4.322;2023-05-07T12:24:56;20.90;99.90
22781;DHT22;11557;50.884;4.322;2023-05-07T12:27:22;20.80;99.90
22781;DHT22;11557;50.884;4.322;2023-05-07T12:29:49;20.90;99.90
22781;DHT22;11557;50.884;4.322;2023-05-07T12:32:17;20.90;99.90
22781;DHT22;11557;50.884;4.322;2023-05-07T12:34:43;20.80;99.90
22781;DHT22;11557;50.884;4.322;2023-05-07T12:37:10;20.90;99.90
22781;DHT22;11557;50.884;4.322;2023-05-07T12:39:35;21.00;99.90
22781;DHT22;11557;50.884;4.322;2023-05-07T12:42:01;21.10;99.90
22781;DHT22;11557;50.884;4.322;2023-05-07T12:44:31;21.20;99.90
22781;DHT22;11557;50.884;4.322;2023-05-07T12:46:58;21.10;99.90
22781;DHT22;11557;50.884;4.322;2023-05-07T12:49:24;21.00;99.90
22781;DHT22;11557;50.884;4.322;2023-05-07T12:51:51;21.00;99.90
22781;DHT22;11557;50.884;4.322;2023-05-07T12:54:33;21.10;99.90
22781;DHT22;11557;50.884;4.322;2023-05-07T12:57:09;20.80;99.90
22781;DHT22;11557;50.884;4.322;2023-05-07T12:59:39;20.60;99.90
22781;DHT22;11557;50.884;4.322;2023-05-07T13:02:05;20.40;99.90
22781;DHT22;11557;50.884;4.322;2023-05-07T13:04:31;20.50;99.90
22781;DHT22;11557;50.884;4.322;2023-05-07T13:06:58;20.50;99.90
22781;DHT22;11557;50.884;4.322;2023-05-07T13:09:23;20.50;99.90
22781;DHT22;11557;50.884;4.322;2023-05-07T13:11:49;20.40;99.90
22781;DHT22;11557;50.884;4.322;2023-05-07T13:14:15;20.60;99.90
22781;DHT22;11557;50.884;4.322;2023-05-07T13:16:41;20.60;99.90
22781;DHT22;11557;50.884;4.322;2023-05-07T13:19:07;20.60;99.90
22781;DHT22;11557;50.884;4.322;2023-05-07T13:21:32;20.80;99.90
22781;DHT22;11557;50.884;4.322;2023-05-07T13:23:58;20.80;99.90
22781;DHT22;11557;50.884;4.322;2023-05-07T13:26:25;20.90;99.90
22781;DHT22;11557;50.884;4.322;2023-05-07T13:28:51;20.70;99.90
22781;DHT22;11557;50.884;4.322;2023-05-07T13:31:17;20.60;99.90
22781;DHT22;11557;50.884;4.322;2023-05-07T13:33:43;20.60;99.90
22781;DHT22;11557;50.884;4.322;2023-05-07T13:36:09;20.40;99.90
22781;DHT22;11557;50.884;4.322;2023-05-07T13:38:35;20.50;99.90
22781;DHT22;11557;50.884;4.322;2023-05-07T13:41:01;20.40;99.90
22781;DHT22;11557;50.884;4.322;2023-05-07T13:43:27;20.60;99.90
22781;DHT22;11557;50.884;4.322;2023-05-07T13:45:53;20.70;99.90
22781;DHT22;11557;50.884;4.322;2023-05-07T13:48:19;20.80;99.90
22781;DHT22;11557;50.884;4.322;2023-05-07T13:50:45;20.90;99.90
22781;DHT22;11557;50.884;4.322;2023-05-07T13:53:10;20.80;99.90
22781;DHT22;11557;50.884;4.322;2023-05-07T13:55:36;20.60;99.90
22781;DHT22;11557;50.884;4.322;2023-05-07T13:58:02;20.80;99.90
22781;DHT22;11557;50.884;4.322;2023-05-07T14:00:29;21.00;99.90
22781;DHT22;11557;50.884;4.322;2023-05-07T14:02:55;21.00;99.90
22781;DHT22;11557;50.884;4.322;2023-05-07T14:05:22;20.90;99.90
22781;DHT22;11557;50.884;4.322;2023-05-07T14:07:52;20.80;99.90
22781;DHT22;11557;50.884;4.322;2023-05-07T14:10:18;20.80;99.90
22781;DHT22;11557;50.884;4.322;2023-05-07T14:12:44;20.90;99.90
22781;DHT22;11557;50.884;4.322;2023-05-07T14:15:10;21.10;99.90
22781;DHT22;11557;50.884;4.322;2023-05-07T14:17:37;21.10;99.90
22781;DHT22;11557;50.884;4.322;2023-05-07T14:20:03;21.30;99.90
22781;DHT22;11557;50.884;4.322;2023-05-07T14:22:29;21.50;99.90
22781;DHT22;11557;50.884;4.322;2023-05-07T14:24:54;21.30;99.90
22781;DHT22;11557;50.884;4.322;2023-05-07T14:27:20;21.20;99.90
22781;DHT22;11557;50.884;4.322;2023-05-07T14:29:46;21.20;99.90
22781;DHT22;11557;50.884;4.322;2023-05-07T14:32:17;21.10;99.90
22781;DHT22;11557;50.884;4.322;2023-05-07T14:34:43;21.10;99.90
22781;DHT22;11557;50.884;4.322;2023-05-07T14:37:09;21.20;99.90
22781;DHT22;11557;50.884;4.322;2023-05-07T14:39:35;21.40;99.90
22781;DHT22;11557;50.884;4.322;2023-05-07T14:42:01;21.30;99.90
22781;DHT22;11557;50.884;4.322;2023-05-07T14:44:26;21.60;99.90
22781;DHT22;11557;50.884;4.322;2023-05-07T14:46:52;21.50;99.90
22781;DHT22;11557;50.884;4.322;2023-05-07T14:49:18;21.60;99.90
22781;DHT22;11557;50.884;4.322;2023-05-07T14:51:44;21.70;99.90
22781;DHT22;11557;50.884;4.322;2023-05-07T14:54:10;21.40;99.90
22781;DHT22;11557;50.884;4.322;2023-05-07T14:56:37;21.20;99.90
22781;DHT22;11557;50.884;4.322;2023-05-07T14:59:03;21.20;99.90
22781;DHT22;11557;50.884;4.322;2023-05-07T15:01:29;21.30;99.90
22781;DHT22;11557;50.884;4.322;2023-05-07T15:03:55;21.20;99.90
22781;DHT22;11557;50.884;4.322;2023-05-07T15:06:21;21.30;99.90
22781;DHT22;11557;50.884;4.322;2023-05-07T15:08:46;21.20;99.90
22781;DHT22;11557;50.884;4.322;2023-05-07T15:11:14;21.30;99.90
22781;DHT22;11557;50.884;4.322;2023-05-07T15:13:41;21.30;99.90
22781;DHT22;11557;50.884;4.322;2023-05-07T15:16:07;21.30;99.90
22781;DHT22;11557;50.884;4.322;2023-05-07T15:18:32;21.30;99.90
22781;DHT22;11557;50.884;4.322;2023-05-07T15:20:58;21.30;99.90
22781;DHT22;11557;50.884;4.322;2023-05-07T15:23:24;21.40;99.90
22781;DHT22;11557;50.884;4.322;2023-05-07T15:25:51;22.20;99.90
22781;DHT22;11557;50.884;4.322;2023-05-07T15:28:17;21.20;99.90
22781;DHT22;11557;50.884;4.322;2023-05-07T15:30:44;22.00;99.90
22781;DHT22;11557;50.884;4.322;2023-05-07T15:33:09;21.10;99.90
22781;DHT22;11557;50.884;4.322;2023-05-07T15:35:35;21.20;99.90
22781;DHT22;11557;50.884;4.322;2023-05-07T15:38:01;21.20;99.90
22781;DHT22;11557;50.884;4.322;2023-05-07T15:40:28;21.10;99.90